createdAt,value
2019-02-10T00:00:11.223Z,987.53
2019-02-10T00:01:12.841Z,987.56
2019-02-10T00:02:11.200Z,987.52
2019-02-10T00:03:11.176Z,987.55
2019-02-10T00:04:32.146Z,987.46
2019-02-10T00:05:11.127Z,987.39
2019-02-10T00:06:11.108Z,987.39
2019-02-10T00:07:11.091Z,987.42
2019-02-10T00:08:11.075Z,987.35
2019-02-10T00:09:11.048Z,987.29
2019-02-10T00:10:32.045Z,987.27
2019-02-10T00:11:11.026Z,987.29
2019-02-10T00:12:10.998Z,987.33
2019-02-10T00:13:10.984Z,987.30
2019-02-10T00:14:10.959Z,987.32
2019-02-10T00:15:10.945Z,987.28
2019-02-10T00:16:31.932Z,987.27
2019-02-10T00:17:10.916Z,987.31
2019-02-10T00:18:10.884Z,987.25
2019-02-10T00:19:10.881Z,987.29
2019-02-10T00:20:10.846Z,987.31
2019-02-10T00:21:10.831Z,987.27
2019-02-10T00:22:31.816Z,987.29
2019-02-10T00:23:10.809Z,987.25
2019-02-10T00:24:10.779Z,987.22
2019-02-10T00:25:10.778Z,987.17
2019-02-10T00:26:10.737Z,987.12
2019-02-10T00:27:10.720Z,987.14
2019-02-10T00:28:31.708Z,987.11
2019-02-10T00:29:10.675Z,987.10
2019-02-10T00:30:10.669Z,987.09
2019-02-10T00:31:10.641Z,987.16
2019-02-10T00:32:10.621Z,987.06
2019-02-10T00:33:10.605Z,987.07
2019-02-10T00:34:31.604Z,987.06
2019-02-10T00:35:10.568Z,987.02
2019-02-10T00:36:10.562Z,986.98
2019-02-10T00:37:10.548Z,986.95
2019-02-10T00:38:10.509Z,986.97
2019-02-10T00:39:10.497Z,986.89
2019-02-10T00:40:31.479Z,986.97
2019-02-10T00:41:10.457Z,986.91
2019-02-10T00:42:10.441Z,986.94
2019-02-10T00:43:10.418Z,986.86
2019-02-10T00:44:10.401Z,986.84
2019-02-10T00:45:10.386Z,986.82
2019-02-10T00:46:31.370Z,986.79
2019-02-10T00:47:10.341Z,986.85
2019-02-10T00:48:10.328Z,986.86
2019-02-10T00:49:10.302Z,986.85
2019-02-10T00:50:10.307Z,986.84
2019-02-10T00:51:10.276Z,986.88
2019-02-10T00:52:31.262Z,986.91
2019-02-10T00:53:10.236Z,986.88
2019-02-10T00:54:10.217Z,986.90
2019-02-10T00:55:10.200Z,986.93
2019-02-10T00:56:10.179Z,986.90
2019-02-10T00:57:10.159Z,986.83
2019-02-10T00:58:31.150Z,986.84
2019-02-10T00:59:10.126Z,986.76
2019-02-10T01:00:10.121Z,986.78
2019-02-10T01:01:10.085Z,986.75
2019-02-10T01:02:10.079Z,986.69
2019-02-10T01:03:10.048Z,986.61
2019-02-10T01:04:31.034Z,986.64
2019-02-10T01:05:10.010Z,986.63
2019-02-10T01:06:09.997Z,986.65
2019-02-10T01:07:09.974Z,986.65
2019-02-10T01:08:09.955Z,986.61
2019-02-10T01:09:09.935Z,986.63
2019-02-10T01:10:30.919Z,986.62
2019-02-10T01:11:09.909Z,986.65
2019-02-10T01:12:09.873Z,986.64
2019-02-10T01:13:09.861Z,986.58
2019-02-10T01:14:09.848Z,986.50
2019-02-10T01:15:09.837Z,986.49
2019-02-10T01:16:30.812Z,986.50
2019-02-10T01:17:09.804Z,986.47
2019-02-10T01:18:09.771Z,986.47
2019-02-10T01:19:09.750Z,986.44
2019-02-10T01:20:09.734Z,986.41
2019-02-10T01:21:09.719Z,986.38
2019-02-10T01:22:30.700Z,986.34
2019-02-10T01:23:09.676Z,986.31
2019-02-10T01:24:09.656Z,986.26
2019-02-10T01:25:09.650Z,986.23
2019-02-10T01:26:09.625Z,986.26
2019-02-10T01:27:09.601Z,986.17
2019-02-10T01:28:30.592Z,986.19
2019-02-10T01:29:09.577Z,986.19
2019-02-10T01:30:09.545Z,986.19
2019-02-10T01:31:09.523Z,986.19
2019-02-10T01:32:09.509Z,986.17
2019-02-10T01:33:09.502Z,986.13
2019-02-10T01:34:30.491Z,986.22
2019-02-10T01:35:09.454Z,986.17
2019-02-10T01:36:09.436Z,986.13
2019-02-10T01:37:09.414Z,986.13
2019-02-10T01:38:09.409Z,986.16
2019-02-10T01:39:09.379Z,986.08
2019-02-10T01:40:30.361Z,986.03
2019-02-10T01:41:09.344Z,985.99
2019-02-10T01:42:09.325Z,985.96
2019-02-10T01:43:09.302Z,985.94
2019-02-10T01:44:09.286Z,985.87
2019-02-10T01:45:09.267Z,985.88
2019-02-10T01:46:30.250Z,985.87
2019-02-10T01:47:09.239Z,985.82
2019-02-10T01:48:09.227Z,985.76
2019-02-10T01:49:09.199Z,985.75
2019-02-10T01:50:09.187Z,985.70
2019-02-10T01:51:09.160Z,985.66
2019-02-10T01:52:30.142Z,985.66
2019-02-10T01:53:09.122Z,985.64
2019-02-10T01:54:09.105Z,985.59
2019-02-10T01:55:09.082Z,985.53
2019-02-10T01:56:09.063Z,985.52
2019-02-10T01:57:09.047Z,985.49
2019-02-10T01:58:30.031Z,985.48
2019-02-10T01:59:09.030Z,985.43
2019-02-10T02:00:08.997Z,985.47
2019-02-10T02:01:08.974Z,985.41
2019-02-10T02:02:08.953Z,985.41
2019-02-10T02:03:08.936Z,985.38
2019-02-10T02:04:29.919Z,985.37
2019-02-10T02:05:08.902Z,985.31
2019-02-10T02:06:08.884Z,985.26
2019-02-10T02:07:08.863Z,985.29
2019-02-10T02:08:08.845Z,985.24
2019-02-10T02:09:08.826Z,985.17
2019-02-10T02:10:29.804Z,985.16
2019-02-10T02:11:08.788Z,985.12
2019-02-10T02:12:08.768Z,985.08
2019-02-10T02:13:08.752Z,985.10
2019-02-10T02:14:08.734Z,985.14
2019-02-10T02:15:08.711Z,985.08
2019-02-10T02:16:29.697Z,985.04
2019-02-10T02:17:08.681Z,985.04
2019-02-10T02:18:08.657Z,984.94
2019-02-10T02:19:08.651Z,984.88
2019-02-10T02:20:08.623Z,984.79
2019-02-10T02:21:08.602Z,984.72
2019-02-10T02:22:29.592Z,984.67
2019-02-10T02:23:08.566Z,984.60
2019-02-10T02:24:08.548Z,984.51
2019-02-10T02:25:08.534Z,984.49
2019-02-10T02:26:08.510Z,984.45
2019-02-10T02:27:08.512Z,984.48
2019-02-10T02:28:29.475Z,984.47
2019-02-10T02:29:08.457Z,984.42
2019-02-10T02:30:08.439Z,984.41
2019-02-10T02:31:08.414Z,984.37
2019-02-10T02:32:08.398Z,984.34
2019-02-10T02:33:08.383Z,984.33
2019-02-10T02:34:29.372Z,984.38
2019-02-10T02:35:08.347Z,984.41
2019-02-10T02:36:08.330Z,984.42
2019-02-10T02:37:08.437Z,984.44
2019-02-10T02:38:08.310Z,984.40
2019-02-10T02:39:08.292Z,984.37
2019-02-10T02:40:29.261Z,984.36
2019-02-10T02:41:08.237Z,984.42
2019-02-10T02:42:08.219Z,984.41
2019-02-10T02:43:08.201Z,984.44
2019-02-10T02:44:08.182Z,984.31
2019-02-10T02:45:08.165Z,984.25
2019-02-10T02:46:29.148Z,984.17
2019-02-10T02:47:08.125Z,984.14
2019-02-10T02:48:08.124Z,984.10
2019-02-10T02:49:08.088Z,984.05
2019-02-10T02:50:08.071Z,984.03
2019-02-10T02:51:08.052Z,984.00
2019-02-10T02:52:29.040Z,984.02
2019-02-10T02:53:08.022Z,984.02
2019-02-10T02:54:08.001Z,983.97
2019-02-10T02:55:07.980Z,983.94
2019-02-10T02:56:07.961Z,983.95
2019-02-10T02:57:07.947Z,983.96
2019-02-10T02:58:28.923Z,983.95
2019-02-10T02:59:07.905Z,983.88
2019-02-10T03:00:07.900Z,983.88
2019-02-10T03:01:07.869Z,983.83
2019-02-10T03:02:07.852Z,983.81
2019-02-10T03:03:07.830Z,983.81
2019-02-10T03:04:28.813Z,983.78
2019-02-10T03:05:07.802Z,983.80
2019-02-10T03:06:07.775Z,983.75
2019-02-10T03:07:17.578Z,983.75
2019-02-10T03:08:07.739Z,983.73
2019-02-10T03:09:07.722Z,983.70
2019-02-10T03:10:28.704Z,983.64
2019-02-10T03:11:07.683Z,983.64
2019-02-10T03:12:07.667Z,983.57
2019-02-10T03:13:07.646Z,983.59
2019-02-10T03:14:07.637Z,983.48
2019-02-10T03:15:07.606Z,983.41
2019-02-10T03:16:28.604Z,983.38
2019-02-10T03:17:07.571Z,983.32
2019-02-10T03:18:07.554Z,983.25
2019-02-10T03:19:07.535Z,983.22
2019-02-10T03:20:07.531Z,983.22
2019-02-10T03:21:07.503Z,983.18
2019-02-10T03:22:28.483Z,983.18
2019-02-10T03:23:07.460Z,983.17
2019-02-10T03:24:07.448Z,983.11
2019-02-10T03:25:07.421Z,983.09
2019-02-10T03:26:07.406Z,983.07
2019-02-10T03:27:07.389Z,983.09
2019-02-10T03:28:28.382Z,983.12
2019-02-10T03:29:07.350Z,983.05
2019-02-10T03:30:07.339Z,983.06
2019-02-10T03:31:07.307Z,983.11
2019-02-10T03:32:07.305Z,982.99
2019-02-10T03:33:07.272Z,982.96
2019-02-10T03:34:28.261Z,982.96
2019-02-10T03:35:07.245Z,982.91
2019-02-10T03:36:07.223Z,982.86
2019-02-10T03:37:07.207Z,982.82
2019-02-10T03:38:07.185Z,982.68
2019-02-10T03:39:07.165Z,982.68
2019-02-10T03:40:28.147Z,982.60
2019-02-10T03:41:07.129Z,982.59
2019-02-10T03:42:07.109Z,982.62
2019-02-10T03:43:07.157Z,982.62
2019-02-10T03:44:07.078Z,982.56
2019-02-10T03:45:07.056Z,982.56
2019-02-10T03:46:28.039Z,982.55
2019-02-10T03:47:07.011Z,982.55
2019-02-10T03:48:07.005Z,982.52
2019-02-10T03:49:06.979Z,982.52
2019-02-10T03:50:06.963Z,982.48
2019-02-10T03:51:06.944Z,982.45
2019-02-10T03:52:27.933Z,982.29
2019-02-10T03:53:06.903Z,982.43
2019-02-10T03:54:06.894Z,982.41
2019-02-10T03:55:06.874Z,982.37
2019-02-10T03:56:06.859Z,982.37
2019-02-10T03:57:06.837Z,982.24
2019-02-10T03:58:27.819Z,982.33
2019-02-10T03:59:06.803Z,982.24
2019-02-10T04:00:06.779Z,982.21
2019-02-10T04:01:06.763Z,982.25
2019-02-10T04:02:06.747Z,982.21
2019-02-10T04:03:06.721Z,982.19
2019-02-10T04:04:27.706Z,982.20
2019-02-10T04:05:06.707Z,982.18
2019-02-10T04:06:06.674Z,982.11
2019-02-10T04:07:06.651Z,982.20
2019-02-10T04:08:06.628Z,982.19
2019-02-10T04:09:06.610Z,982.13
2019-02-10T04:10:27.596Z,982.05
2019-02-10T04:11:06.579Z,982.15
2019-02-10T04:12:06.559Z,982.07
2019-02-10T04:13:06.540Z,982.09
2019-02-10T04:14:06.525Z,982.04
2019-02-10T04:15:06.511Z,982.00
2019-02-10T04:16:27.502Z,982.07
2019-02-10T04:17:06.469Z,981.99
2019-02-10T04:18:06.479Z,981.95
2019-02-10T04:19:06.433Z,981.95
2019-02-10T04:20:06.425Z,981.92
2019-02-10T04:21:06.395Z,981.91
2019-02-10T04:22:27.377Z,981.85
2019-02-10T04:23:06.353Z,981.81
2019-02-10T04:24:06.340Z,981.77
2019-02-10T04:25:06.317Z,981.70
2019-02-10T04:26:06.309Z,981.61
2019-02-10T04:27:06.284Z,981.58
2019-02-10T04:28:27.310Z,981.60
2019-02-10T04:29:06.252Z,981.55
2019-02-10T04:30:06.334Z,981.48
2019-02-10T04:31:06.217Z,981.47
2019-02-10T04:32:06.193Z,981.45
2019-02-10T04:33:06.171Z,981.45
2019-02-10T04:34:27.163Z,981.47
2019-02-10T04:35:06.141Z,981.46
2019-02-10T04:36:06.118Z,981.45
2019-02-10T04:37:06.105Z,981.44
2019-02-10T04:38:06.097Z,981.49
2019-02-10T04:39:06.067Z,981.41
2019-02-10T04:40:27.044Z,981.40
2019-02-10T04:41:06.024Z,981.44
2019-02-10T04:42:06.067Z,981.38
2019-02-10T04:43:05.997Z,981.37
2019-02-10T04:44:05.973Z,981.37
2019-02-10T04:45:05.953Z,981.31
2019-02-10T04:46:26.944Z,981.34
2019-02-10T04:47:05.914Z,981.28
2019-02-10T04:48:05.917Z,981.22
2019-02-10T04:49:05.880Z,981.26
2019-02-10T04:50:05.873Z,981.25
2019-02-10T04:51:05.845Z,981.31
2019-02-10T04:52:26.829Z,981.29
2019-02-10T04:53:05.819Z,981.29
2019-02-10T04:54:05.789Z,981.26
2019-02-10T04:55:05.770Z,981.23
2019-02-10T04:56:05.753Z,981.20
2019-02-10T04:57:05.736Z,981.17
2019-02-10T04:58:26.716Z,981.15
2019-02-10T04:59:05.709Z,981.14
2019-02-10T05:00:05.678Z,981.08
2019-02-10T05:01:05.662Z,981.09
2019-02-10T05:02:05.641Z,981.08
2019-02-10T05:03:05.626Z,981.05
2019-02-10T05:04:26.611Z,981.00
2019-02-10T05:05:05.592Z,981.01
2019-02-10T05:06:05.574Z,981.03
2019-02-10T05:07:05.555Z,980.98
2019-02-10T05:08:05.531Z,980.99
2019-02-10T05:09:05.511Z,980.95
2019-02-10T05:10:26.500Z,980.89
2019-02-10T05:11:05.476Z,980.91
2019-02-10T05:12:05.461Z,980.88
2019-02-10T05:13:05.451Z,980.82
2019-02-10T05:14:05.434Z,980.79
2019-02-10T05:15:05.409Z,980.75
2019-02-10T05:16:26.389Z,980.70
2019-02-10T05:17:05.365Z,980.64
2019-02-10T05:18:05.350Z,980.65
2019-02-10T05:19:05.333Z,980.59
2019-02-10T05:20:05.319Z,980.56
2019-02-10T05:21:05.293Z,980.56
2019-02-10T05:22:26.277Z,980.55
2019-02-10T05:23:05.255Z,980.49
2019-02-10T05:24:05.253Z,980.49
2019-02-10T05:25:05.215Z,980.45
2019-02-10T05:26:05.213Z,980.47
2019-02-10T05:27:05.179Z,980.45
2019-02-10T05:28:26.164Z,980.45
2019-02-10T05:29:05.150Z,980.46
2019-02-10T05:30:05.164Z,980.45
2019-02-10T05:31:05.111Z,980.46
2019-02-10T05:32:05.133Z,980.44
2019-02-10T05:33:05.072Z,980.42
2019-02-10T05:34:26.053Z,980.40
2019-02-10T05:35:05.061Z,980.44
2019-02-10T05:36:05.085Z,980.41
2019-02-10T05:37:05.022Z,980.43
2019-02-10T05:38:05.143Z,980.36
2019-02-10T05:39:04.956Z,980.32
2019-02-10T05:40:25.947Z,980.28
2019-02-10T05:41:04.922Z,980.25
2019-02-10T05:42:04.939Z,980.19
2019-02-10T05:43:04.893Z,980.14
2019-02-10T05:44:04.862Z,980.09
2019-02-10T05:45:04.859Z,980.09
2019-02-10T05:46:25.826Z,980.03
2019-02-10T05:47:04.809Z,980.04
2019-02-10T05:48:04.789Z,979.98
2019-02-10T05:49:04.771Z,979.89
2019-02-10T05:50:04.749Z,979.93
2019-02-10T05:51:04.739Z,979.90
2019-02-10T05:52:25.718Z,979.95
2019-02-10T05:53:04.696Z,979.87
2019-02-10T05:54:04.677Z,979.87
2019-02-10T05:55:04.677Z,979.83
2019-02-10T05:56:04.664Z,979.84
2019-02-10T05:57:04.622Z,979.83
2019-02-10T05:58:25.603Z,979.81
2019-02-10T05:59:04.583Z,979.78
2019-02-10T06:00:04.567Z,979.72
2019-02-10T06:01:04.557Z,979.77
2019-02-10T06:02:04.535Z,979.66
2019-02-10T06:03:04.510Z,979.70
2019-02-10T06:04:25.499Z,979.63
2019-02-10T06:05:04.472Z,979.70
2019-02-10T06:06:04.454Z,979.55
2019-02-10T06:07:04.433Z,979.56
2019-02-10T06:08:12.698Z,979.57
2019-02-10T06:09:04.403Z,979.57
2019-02-10T06:10:25.383Z,979.48
2019-02-10T06:11:04.362Z,979.50
2019-02-10T06:12:04.344Z,979.45
2019-02-10T06:13:04.321Z,979.44
2019-02-10T06:14:04.309Z,979.42
2019-02-10T06:15:04.292Z,979.38
2019-02-10T06:16:25.272Z,979.38
2019-02-10T06:17:04.250Z,979.26
2019-02-10T06:18:04.234Z,979.26
2019-02-10T06:19:04.213Z,979.34
2019-02-10T06:20:04.198Z,979.27
2019-02-10T06:21:04.176Z,979.22
2019-02-10T06:22:25.161Z,979.21
2019-02-10T06:23:04.145Z,979.18
2019-02-10T06:24:04.116Z,979.15
2019-02-10T06:25:04.108Z,979.13
2019-02-10T06:26:04.086Z,979.15
2019-02-10T06:27:04.066Z,979.13
2019-02-10T06:28:25.055Z,979.14
2019-02-10T06:29:04.065Z,979.14
2019-02-10T06:30:04.014Z,979.10
2019-02-10T06:31:03.992Z,979.11
2019-02-10T06:32:03.967Z,979.03
2019-02-10T06:33:03.956Z,978.98
2019-02-10T06:34:24.962Z,979.02
2019-02-10T06:35:03.917Z,979.08
2019-02-10T06:36:03.912Z,978.96
2019-02-10T06:37:03.908Z,978.97
2019-02-10T06:38:03.864Z,978.90
2019-02-10T06:39:03.851Z,978.95
2019-02-10T06:40:24.835Z,978.85
2019-02-10T06:41:03.809Z,978.81
2019-02-10T06:42:03.815Z,978.87
2019-02-10T06:43:03.776Z,978.88
2019-02-10T06:44:03.759Z,978.83
2019-02-10T06:45:03.742Z,978.79
2019-02-10T06:46:24.720Z,978.74
2019-02-10T06:47:03.703Z,978.76
2019-02-10T06:48:03.686Z,978.79
2019-02-10T06:49:03.671Z,978.77
2019-02-10T06:50:03.649Z,978.67
2019-02-10T06:51:03.621Z,978.66
2019-02-10T06:52:24.610Z,978.63
2019-02-10T06:53:03.590Z,978.64
2019-02-10T06:54:03.573Z,978.64
2019-02-10T06:55:03.559Z,978.65
2019-02-10T06:56:03.537Z,978.59
2019-02-10T06:57:03.520Z,978.59
2019-02-10T06:58:24.502Z,978.63
2019-02-10T06:59:03.480Z,978.58
2019-02-10T07:00:03.460Z,978.55
2019-02-10T07:01:03.446Z,978.51
2019-02-10T07:02:03.423Z,978.44
2019-02-10T07:03:03.409Z,978.37
2019-02-10T07:04:24.400Z,978.46
2019-02-10T07:05:03.373Z,978.36
2019-02-10T07:06:03.355Z,978.36
2019-02-10T07:07:03.334Z,978.26
2019-02-10T07:08:03.375Z,978.27
2019-02-10T07:09:03.314Z,978.24
2019-02-10T07:10:24.283Z,978.20
2019-02-10T07:11:03.260Z,978.18
2019-02-10T07:12:03.242Z,978.09
2019-02-10T07:13:03.220Z,978.02
2019-02-10T07:14:03.206Z,978.01
2019-02-10T07:15:03.186Z,977.94
2019-02-10T07:16:24.171Z,977.87
2019-02-10T07:17:03.153Z,977.87
2019-02-10T07:18:03.131Z,977.80
2019-02-10T07:19:03.115Z,977.74
2019-02-10T07:20:03.094Z,977.74
2019-02-10T07:21:03.077Z,977.68
2019-02-10T07:22:24.059Z,977.63
2019-02-10T07:23:03.045Z,977.65
2019-02-10T07:24:03.027Z,977.54
2019-02-10T07:25:03.010Z,977.46
2019-02-10T07:26:02.987Z,977.38
2019-02-10T07:27:02.963Z,977.37
2019-02-10T07:28:23.953Z,977.40
2019-02-10T07:29:02.926Z,977.23
2019-02-10T07:30:02.910Z,977.21
2019-02-10T07:31:02.890Z,977.31
2019-02-10T07:32:02.869Z,977.30
2019-02-10T07:33:02.852Z,977.25
2019-02-10T07:34:23.838Z,977.23
2019-02-10T07:35:02.822Z,977.22
2019-02-10T07:36:02.809Z,977.05
2019-02-10T07:37:02.783Z,977.18
2019-02-10T07:38:02.765Z,976.99
2019-02-10T07:39:02.759Z,977.00
2019-02-10T07:40:23.738Z,977.13
2019-02-10T07:41:02.716Z,977.13
2019-02-10T07:42:02.689Z,977.06
2019-02-10T07:43:02.674Z,977.05
2019-02-10T07:44:02.654Z,976.93
2019-02-10T07:45:02.635Z,976.79
2019-02-10T07:46:23.647Z,976.86
2019-02-10T07:47:02.605Z,976.83
2019-02-10T07:48:02.580Z,976.91
2019-02-10T07:49:02.569Z,976.89
2019-02-10T07:50:02.540Z,976.80
2019-02-10T07:51:02.524Z,976.71
2019-02-10T07:52:23.509Z,976.81
2019-02-10T07:53:02.490Z,976.74
2019-02-10T07:54:03.685Z,976.90
2019-02-10T07:55:02.452Z,976.84
2019-02-10T07:56:02.438Z,976.82
2019-02-10T07:57:02.414Z,976.87
2019-02-10T07:58:23.413Z,976.79
2019-02-10T07:59:02.380Z,976.77
2019-02-10T08:00:02.364Z,976.72
2019-02-10T08:01:02.346Z,976.77
2019-02-10T08:02:02.329Z,976.57
2019-02-10T08:03:02.310Z,976.59
2019-02-10T08:04:23.300Z,976.64
2019-02-10T08:05:02.272Z,976.68
2019-02-10T08:06:02.255Z,976.69
2019-02-10T08:07:02.236Z,976.69
2019-02-10T08:08:02.229Z,976.78
2019-02-10T08:09:02.210Z,976.83
2019-02-10T08:10:23.186Z,976.84
2019-02-10T08:11:02.166Z,976.77
2019-02-10T08:12:02.154Z,976.77
2019-02-10T08:13:02.130Z,976.69
2019-02-10T08:14:02.117Z,976.78
2019-02-10T08:15:02.092Z,976.82
2019-02-10T08:16:23.115Z,976.80
2019-02-10T08:17:02.058Z,976.77
2019-02-10T08:18:02.044Z,976.82
2019-02-10T08:19:02.018Z,976.69
2019-02-10T08:20:02.006Z,976.69
2019-02-10T08:21:01.982Z,976.78
2019-02-10T08:22:22.966Z,976.78
2019-02-10T08:23:01.955Z,976.68
2019-02-10T08:24:01.930Z,976.78
2019-02-10T08:25:01.912Z,976.85
2019-02-10T08:26:01.907Z,976.65
2019-02-10T08:27:01.879Z,976.66
2019-02-10T08:28:22.863Z,976.71
2019-02-10T08:29:01.847Z,976.61
2019-02-10T08:30:01.830Z,976.68
2019-02-10T08:31:01.807Z,976.62
2019-02-10T08:32:01.788Z,976.65
2019-02-10T08:33:01.770Z,976.54
2019-02-10T08:34:22.751Z,976.59
2019-02-10T08:35:01.743Z,976.61
2019-02-10T08:36:01.715Z,976.46
2019-02-10T08:37:01.703Z,976.42
2019-02-10T08:38:01.685Z,976.46
2019-02-10T08:39:01.664Z,976.53
2019-02-10T08:40:22.648Z,976.42
2019-02-10T08:41:01.630Z,976.48
2019-02-10T08:42:01.619Z,976.37
2019-02-10T08:43:01.592Z,976.33
2019-02-10T08:44:01.577Z,976.40
2019-02-10T08:45:01.556Z,976.46
2019-02-10T08:46:22.548Z,976.36
2019-02-10T08:47:01.518Z,976.36
2019-02-10T08:48:01.507Z,976.35
2019-02-10T08:49:01.484Z,976.30
2019-02-10T08:50:01.497Z,976.36
2019-02-10T08:51:01.516Z,976.25
2019-02-10T08:52:22.442Z,976.14
2019-02-10T08:53:01.411Z,976.11
2019-02-10T08:54:01.410Z,976.15
2019-02-10T08:55:02.519Z,976.16
2019-02-10T08:56:01.362Z,976.09
2019-02-10T08:57:01.343Z,976.12
2019-02-10T08:58:22.325Z,975.92
2019-02-10T08:59:01.309Z,976.02
2019-02-10T09:00:01.289Z,975.98
2019-02-10T09:01:01.272Z,975.91
2019-02-10T09:02:01.256Z,975.92
2019-02-10T09:03:01.244Z,975.86
2019-02-10T09:04:22.219Z,975.91
2019-02-10T09:05:01.233Z,975.94
2019-02-10T09:06:01.183Z,975.82
2019-02-10T09:07:01.165Z,975.78
2019-02-10T09:08:01.148Z,975.76
2019-02-10T09:09:02.570Z,975.96
2019-02-10T09:10:22.109Z,975.78
2019-02-10T09:11:01.146Z,975.68
2019-02-10T09:12:01.074Z,975.66
2019-02-10T09:13:01.058Z,975.58
2019-02-10T09:14:01.038Z,975.51
2019-02-10T09:15:01.018Z,975.49
2019-02-10T09:16:22.002Z,975.46
2019-02-10T09:17:00.984Z,975.40
2019-02-10T09:18:00.968Z,975.30
2019-02-10T09:19:00.956Z,975.16
2019-02-10T09:20:00.932Z,975.36
2019-02-10T09:21:00.925Z,975.34
2019-02-10T09:22:21.897Z,975.28
2019-02-10T09:23:00.884Z,975.21
2019-02-10T09:24:00.867Z,975.35
2019-02-10T09:25:00.845Z,975.25
2019-02-10T09:26:00.827Z,975.39
2019-02-10T09:27:00.809Z,975.30
2019-02-10T09:28:21.798Z,975.15
2019-02-10T09:29:00.774Z,975.17
2019-02-10T09:30:00.757Z,975.09
2019-02-10T09:31:00.737Z,975.12
2019-02-10T09:32:00.718Z,975.17
2019-02-10T09:33:00.701Z,975.11
2019-02-10T09:34:21.685Z,975.09
2019-02-10T09:35:00.667Z,975.02
2019-02-10T09:36:00.649Z,975.02
2019-02-10T09:37:00.629Z,975.06
2019-02-10T09:38:00.615Z,975.01
2019-02-10T09:39:00.598Z,974.99
2019-02-10T09:40:21.584Z,974.89
2019-02-10T09:41:00.566Z,974.92
2019-02-10T09:42:00.542Z,974.86
2019-02-10T09:43:00.533Z,974.93
2019-02-10T09:44:00.584Z,974.98
2019-02-10T09:45:00.493Z,974.90
2019-02-10T09:46:21.473Z,974.86
2019-02-10T09:47:00.453Z,974.89
2019-02-10T09:48:00.434Z,974.71
2019-02-10T09:49:00.417Z,974.85
2019-02-10T09:50:00.407Z,974.82
2019-02-10T09:51:00.394Z,974.83
2019-02-10T09:52:21.375Z,974.77
2019-02-10T09:53:00.343Z,974.79
2019-02-10T09:54:00.332Z,974.71
2019-02-10T09:55:00.321Z,974.63
2019-02-10T09:56:00.300Z,974.69
2019-02-10T09:57:00.281Z,974.62
2019-02-10T09:58:21.259Z,974.59
2019-02-10T09:59:00.238Z,974.62
2019-02-10T10:00:00.270Z,974.53
2019-02-10T10:01:00.229Z,974.51
2019-02-10T10:02:00.187Z,974.55
2019-02-10T10:03:00.172Z,974.41
2019-02-10T10:04:21.175Z,974.45
2019-02-10T10:05:00.238Z,974.46
2019-02-10T10:06:00.125Z,974.42
2019-02-10T10:07:00.126Z,974.40
2019-02-10T10:08:00.090Z,974.35
2019-02-10T10:09:00.077Z,974.26
2019-02-10T10:10:21.058Z,974.23
2019-02-10T10:11:00.036Z,974.25
2019-02-10T10:12:00.024Z,974.30
2019-02-10T10:13:00.000Z,974.19
2019-02-10T10:13:59.991Z,974.26
2019-02-10T10:14:59.964Z,974.23
2019-02-10T10:16:20.947Z,974.27
2019-02-10T10:16:59.932Z,974.23
2019-02-10T10:17:59.954Z,974.15
2019-02-10T10:18:59.891Z,974.25
2019-02-10T10:19:59.877Z,974.18
2019-02-10T10:20:59.860Z,974.13
2019-02-10T10:22:20.846Z,974.11
2019-02-10T10:22:59.839Z,974.21
2019-02-10T10:23:59.806Z,974.18
2019-02-10T10:25:00.704Z,974.16
2019-02-10T10:25:59.784Z,974.18
2019-02-10T10:26:59.759Z,974.13
2019-02-10T10:28:20.747Z,974.10
2019-02-10T10:28:59.795Z,974.05
2019-02-10T10:29:59.709Z,973.97
2019-02-10T10:30:59.686Z,974.05
2019-02-10T10:31:59.668Z,974.07
2019-02-10T10:32:59.654Z,973.95
2019-02-10T10:34:20.629Z,973.93
2019-02-10T10:34:59.614Z,974.03
2019-02-10T10:35:59.593Z,973.90
2019-02-10T10:36:59.580Z,973.87
2019-02-10T10:37:59.561Z,973.87
2019-02-10T10:38:59.545Z,973.90
2019-02-10T10:40:20.524Z,973.81
2019-02-10T10:40:59.508Z,973.86
2019-02-10T10:42:01.439Z,973.85
2019-02-10T10:42:59.477Z,973.86
2019-02-10T10:43:59.464Z,973.82
2019-02-10T10:44:59.433Z,973.83
2019-02-10T10:46:20.469Z,973.73
2019-02-10T10:46:59.402Z,973.67
2019-02-10T10:48:06.559Z,973.67
2019-02-10T10:49:52.265Z,973.76
2019-02-10T10:50:53.809Z,973.57
2019-02-10T10:52:45.111Z,973.55
2019-02-10T10:53:45.067Z,973.58
2019-02-10T10:55:37.939Z,973.53
2019-02-10T10:56:37.910Z,973.49
2019-02-10T10:58:30.779Z,973.30
2019-02-10T10:59:30.743Z,973.40
2019-02-10T11:00:30.726Z,973.33
2019-02-10T11:01:30.709Z,973.33
2019-02-10T11:02:30.690Z,973.45
2019-02-10T11:03:30.704Z,973.39
2019-02-10T11:04:30.653Z,973.41
2019-02-10T11:05:30.636Z,973.47
2019-02-10T11:06:30.624Z,973.34
2019-02-10T11:07:30.602Z,973.31
2019-02-10T11:08:30.583Z,973.27
2019-02-10T11:09:35.667Z,973.26
2019-02-10T11:10:30.550Z,973.15
2019-02-10T11:11:30.531Z,973.21
2019-02-10T11:12:30.523Z,973.16
2019-02-10T11:13:30.497Z,973.16
2019-02-10T11:14:30.483Z,973.00
2019-02-10T11:15:30.463Z,973.13
2019-02-10T11:16:30.461Z,973.13
2019-02-10T11:17:30.423Z,973.04
2019-02-10T11:18:30.409Z,972.97
2019-02-10T11:19:30.398Z,972.87
2019-02-10T11:20:30.374Z,973.01
2019-02-10T11:21:30.386Z,972.99
2019-02-10T11:22:30.339Z,973.06
2019-02-10T11:23:30.318Z,973.07
2019-02-10T11:24:30.302Z,973.02
2019-02-10T11:25:30.286Z,973.01
2019-02-10T11:26:30.275Z,972.84
2019-02-10T11:27:30.248Z,972.88
2019-02-10T11:28:30.231Z,972.88
2019-02-10T11:29:30.214Z,972.83
2019-02-10T11:30:30.202Z,972.88
2019-02-10T11:31:30.175Z,972.97
2019-02-10T11:32:30.162Z,972.76
2019-02-10T11:33:30.138Z,972.77
2019-02-10T11:34:30.135Z,972.83
2019-02-10T11:35:30.106Z,972.73
2019-02-10T11:36:30.094Z,972.73
2019-02-10T11:37:31.132Z,972.81
2019-02-10T11:38:30.060Z,972.79
2019-02-10T11:39:30.034Z,972.75
2019-02-10T11:40:30.018Z,972.70
2019-02-10T11:41:30.044Z,972.65
2019-02-10T11:42:29.988Z,972.69
2019-02-10T11:43:29.980Z,972.70
2019-02-10T11:44:29.949Z,972.56
2019-02-10T11:45:29.927Z,972.61
2019-02-10T11:46:29.913Z,972.51
2019-02-10T11:47:29.897Z,972.57
2019-02-10T11:48:29.880Z,972.55
2019-02-10T11:49:29.862Z,972.52
2019-02-10T11:50:29.836Z,972.52
2019-02-10T11:51:29.823Z,972.44
2019-02-10T11:52:29.806Z,972.59
2019-02-10T11:53:29.785Z,972.41
2019-02-10T11:54:29.783Z,972.40
2019-02-10T11:55:29.751Z,972.36
2019-02-10T11:56:29.733Z,972.25
2019-02-10T11:57:29.710Z,972.32
2019-02-10T11:58:29.703Z,972.40
2019-02-10T11:59:29.688Z,972.32
2019-02-10T12:00:29.662Z,972.13
2019-02-10T12:01:29.641Z,972.33
2019-02-10T12:02:37.612Z,972.13
2019-02-10T12:03:29.611Z,972.12
2019-02-10T12:04:29.591Z,972.19
2019-02-10T12:05:29.573Z,972.20
2019-02-10T12:06:29.581Z,972.00
2019-02-10T12:07:29.536Z,972.46
2019-02-10T12:08:35.582Z,972.20
2019-02-10T12:09:29.498Z,972.10
2019-02-10T12:10:29.479Z,972.20
2019-02-10T12:11:29.467Z,972.19
2019-02-10T12:12:29.448Z,972.14
2019-02-10T12:13:29.429Z,972.33
2019-02-10T12:14:29.412Z,972.23
2019-02-10T12:15:29.399Z,972.20
2019-02-10T12:16:29.378Z,972.27
2019-02-10T12:17:29.367Z,972.11
2019-02-10T12:18:29.364Z,972.21
2019-02-10T12:19:29.320Z,972.08
2019-02-10T12:20:29.312Z,972.12
2019-02-10T12:21:29.286Z,972.17
2019-02-10T12:22:29.288Z,972.14
2019-02-10T12:23:29.262Z,972.05
2019-02-10T12:24:29.234Z,972.09
2019-02-10T12:25:29.223Z,972.14
2019-02-10T12:26:29.195Z,972.14
2019-02-10T12:27:29.192Z,972.14
2019-02-10T12:28:29.183Z,972.07
2019-02-10T12:29:29.154Z,972.06
2019-02-10T12:30:29.126Z,972.06
2019-02-10T12:31:29.110Z,971.89